sensor_id;sensor_type;location;lat;lon;timestamp;pressure;altitude;pressure_sealevel;temperature;humidity
69622;BME280;56841;55.964;37.674;2022-09-03T00:03:22;99984.66;;;6.36;100.00
69622;BME280;56841;55.964;37.674;2022-09-03T00:06:13;99986.16;;;6.38;100.00
69622;BME280;56841;55.964;37.674;2022-09-03T00:08:51;99987.13;;;6.37;100.00
69622;BME280;56841;55.964;37.674;2022-09-03T00:14:21;99996.91;;;6.35;100.00
69622;BME280;56841;55.964;37.674;2022-09-03T00:17:14;99997.06;;;6.34;100.00
69622;BME280;56841;55.964;37.674;2022-09-03T00:19:57;99997.16;;;6.32;100.00
69622;BME280;56841;55.964;37.674;2022-09-03T00:22:55;99997.31;;;6.31;100.00
69622;BME280;56841;55.964;37.674;2022-09-03T00:25:26;100001.84;;;6.29;100.00
69622;BME280;56841;55.964;37.674;2022-09-03T00:27:56;100008.63;;;6.31;100.00
69622;BME280;56841;55.964;37.674;2022-09-03T00:30:23;100011.16;;;6.33;100.00
69622;BME280;56841;55.964;37.674;2022-09-03T00:35:42;100016.66;;;6.30;100.00
69622;BME280;56841;55.964;37.674;2022-09-03T00:38:12;100018.81;;;6.25;100.00
69622;BME280;56841;55.964;37.674;2022-09-03T00:41:08;100023.47;;;6.21;100.00
69622;BME280;56841;55.964;37.674;2022-09-03T00:57:27;100014.22;;;6.17;100.00
69622;BME280;56841;55.964;37.674;2022-09-03T01:02:31;100026.19;;;6.10;100.00
69622;BME280;56841;55.964;37.674;2022-09-03T01:07:48;100019.28;;;6.09;100.00
69622;BME280;56841;55.964;37.674;2022-09-03T01:10:34;100026.03;;;6.11;100.00
69622;BME280;56841;55.964;37.674;2022-09-03T01:13:16;100030.72;;;6.08;100.00
69622;BME280;56841;55.964;37.674;2022-09-03T01:18:42;100036.50;;;6.02;100.00
69622;BME280;56841;55.964;37.674;2022-09-03T01:30:10;100043.97;;;5.74;100.00
69622;BME280;56841;55.964;37.674;2022-09-03T01:32:45;100048.13;;;5.77;100.00
69622;BME280;56841;55.964;37.674;2022-09-03T01:37:58;100049.47;;;5.71;100.00
69622;BME280;56841;55.964;37.674;2022-09-03T01:40:32;100050.88;;;5.75;100.00
69622;BME280;56841;55.964;37.674;2022-09-03T01:43:32;100056.47;;;5.70;100.00
69622;BME280;56841;55.964;37.674;2022-09-03T01:46:09;100062.94;;;5.66;100.00
69622;BME280;56841;55.964;37.674;2022-09-03T01:51:30;100068.06;;;5.68;100.00
69622;BME280;56841;55.964;37.674;2022-09-03T01:57:01;100087.88;;;5.61;100.00
69622;BME280;56841;55.964;37.674;2022-09-03T02:00:09;100085.84;;;5.53;100.00
69622;BME280;56841;55.964;37.674;2022-09-03T02:02:40;100084.91;;;5.54;100.00
69622;BME280;56841;55.964;37.674;2022-09-03T02:05:07;100085.16;;;5.51;100.00
69622;BME280;56841;55.964;37.674;2022-09-03T02:07:46;100100.16;;;5.49;100.00
69622;BME280;56841;55.964;37.674;2022-09-03T02:10:13;100100.53;;;5.44;100.00
69622;BME280;56841;55.964;37.674;2022-09-03T02:12:40;100102.91;;;5.47;100.00
69622;BME280;56841;55.964;37.674;2022-09-03T02:15:14;100099.31;;;5.49;100.00
69622;BME280;56841;55.964;37.674;2022-09-03T02:17:43;100105.03;;;5.42;100.00
69622;BME280;56841;55.964;37.674;2022-09-03T02:20:14;100110.03;;;5.45;100.00
69622;BME280;56841;55.964;37.674;2022-09-03T02:22:41;100111.09;;;5.43;100.00
69622;BME280;56841;55.964;37.674;2022-09-03T02:25:08;100106.59;;;5.45;100.00
69622;BME280;56841;55.964;37.674;2022-09-03T02:27:37;100116.59;;;5.40;100.00
69622;BME280;56841;55.964;37.674;2022-09-03T02:30:04;100115.31;;;5.34;100.00
69622;BME280;56841;55.964;37.674;2022-09-03T02:32:31;100113.63;;;5.33;100.00
69622;BME280;56841;55.964;37.674;2022-09-03T02:34:57;100119.59;;;5.35;100.00
69622;BME280;56841;55.964;37.674;2022-09-03T02:37:24;100118.41;;;5.28;100.00
69622;BME280;56841;55.964;37.674;2022-09-03T02:39:50;100119.25;;;5.29;100.00
69622;BME280;56841;55.964;37.674;2022-09-03T02:42:19;100128.06;;;5.28;100.00
69622;BME280;56841;55.964;37.674;2022-09-03T02:44:51;100129.72;;;5.29;100.00
69622;BME280;56841;55.964;37.674;2022-09-03T02:47:18;100132.22;;;5.30;100.00
69622;BME280;56841;55.964;37.674;2022-09-03T02:49:48;100134.22;;;5.38;100.00
69622;BME280;56841;55.964;37.674;2022-09-03T02:52:14;100132.44;;;5.38;100.00
69622;BME280;56841;55.964;37.674;2022-09-03T02:54:41;100137.53;;;5.40;100.00
69622;BME280;56841;55.964;37.674;2022-09-03T02:57:12;100137.53;;;5.40;100.00
69622;BME280;56841;55.964;37.674;2022-09-03T02:59:39;100141.94;;;5.39;100.00
69622;BME280;56841;55.964;37.674;2022-09-03T03:02:06;100135.66;;;5.42;100.00
69622;BME280;56841;55.964;37.674;2022-09-03T03:04:32;100138.47;;;5.50;100.00
69622;BME280;56841;55.964;37.674;2022-09-03T03:06:58;100142.66;;;5.53;100.00
69622;BME280;56841;55.964;37.674;2022-09-03T03:09:24;100146.22;;;5.52;100.00
69622;BME280;56841;55.964;37.674;2022-09-03T03:11:50;100146.81;;;5.55;100.00
69622;BME280;56841;55.964;37.674;2022-09-03T03:14:17;100151.91;;;5.57;100.00
69622;BME280;56841;55.964;37.674;2022-09-03T03:16:43;100143.00;;;5.59;100.00
69622;BME280;56841;55.964;37.674;2022-09-03T03:19:09;100151.56;;;5.61;100.00
69622;BME280;56841;55.964;37.674;2022-09-03T03:21:35;100152.00;;;5.66;100.00
69622;BME280;56841;55.964;37.674;2022-09-03T03:24:01;100159.78;;;5.68;100.00
69622;BME280;56841;55.964;37.674;2022-09-03T03:26:27;100158.81;;;5.69;100.00
69622;BME280;56841;55.964;37.674;2022-09-03T03:28:58;100159.25;;;5.74;100.00
69622;BME280;56841;55.964;37.674;2022-09-03T03:31:26;100162.34;;;5.79;100.00
69622;BME280;56841;55.964;37.674;2022-09-03T03:33:53;100163.31;;;5.78;100.00
69622;BME280;56841;55.964;37.674;2022-09-03T03:36:20;100168.63;;;5.88;100.00
69622;BME280;56841;55.964;37.674;2022-09-03T03:38:46;100166.16;;;5.86;100.00
69622;BME280;56841;55.964;37.674;2022-09-03T03:41:18;100170.66;;;5.84;100.00
69622;BME280;56841;55.964;37.674;2022-09-03T03:43:47;100170.56;;;5.86;100.00
69622;BME280;56841;55.964;37.674;2022-09-03T03:46:13;100177.00;;;5.93;100.00
69622;BME280;56841;55.964;37.674;2022-09-03T03:48:42;100173.88;;;5.99;100.00
69622;BME280;56841;55.964;37.674;2022-09-03T03:51:08;100173.41;;;6.05;100.00
69622;BME280;56841;55.964;37.674;2022-09-03T03:53:38;100173.97;;;6.09;100.00
69622;BME280;56841;55.964;37.674;2022-09-03T03:56:11;100174.81;;;6.09;100.00
69622;BME280;56841;55.964;37.674;2022-09-03T03:58:38;100179.41;;;6.17;100.00
69622;BME280;56841;55.964;37.674;2022-09-03T04:01:17;100173.91;;;6.20;100.00
69622;BME280;56841;55.964;37.674;2022-09-03T04:03:43;100173.84;;;6.31;100.00
69622;BME280;56841;55.964;37.674;2022-09-03T04:06:10;100173.09;;;6.40;100.00
69622;BME280;56841;55.964;37.674;2022-09-03T04:08:41;100175.34;;;6.45;100.00
69622;BME280;56841;55.964;37.674;2022-09-03T04:11:09;100179.31;;;6.60;100.00
69622;BME280;56841;55.964;37.674;2022-09-03T04:13:38;100181.41;;;6.67;99.85
69622;BME280;56841;55.964;37.674;2022-09-03T04:16:09;100184.50;;;6.72;99.06
69622;BME280;56841;55.964;37.674;2022-09-03T04:18:36;100183.94;;;6.68;99.06
69622;BME280;56841;55.964;37.674;2022-09-03T04:21:04;100182.28;;;6.67;99.18
69622;BME280;56841;55.964;37.674;2022-09-03T04:23:33;100183.53;;;6.73;99.29
69622;BME280;56841;55.964;37.674;2022-09-03T04:25:59;100186.09;;;6.84;98.58
69622;BME280;56841;55.964;37.674;2022-09-03T04:28:25;100193.41;;;6.80;98.65
69622;BME280;56841;55.964;37.674;2022-09-03T04:30:52;100185.53;;;6.80;98.57
69622;BME280;56841;55.964;37.674;2022-09-03T04:33:19;100184.38;;;6.94;98.31
69622;BME280;56841;55.964;37.674;2022-09-03T04:35:44;100191.69;;;7.00;97.09
69622;BME280;56841;55.964;37.674;2022-09-03T04:38:11;100184.06;;;6.97;96.58
69622;BME280;56841;55.964;37.674;2022-09-03T04:40:37;100181.75;;;7.04;95.95
69622;BME280;56841;55.964;37.674;2022-09-03T04:43:03;100185.97;;;7.16;95.21
69622;BME280;56841;55.964;37.674;2022-09-03T04:45:29;100186.69;;;7.18;95.10
69622;BME280;56841;55.964;37.674;2022-09-03T04:48:01;100189.31;;;7.28;94.39
69622;BME280;56841;55.964;37.674;2022-09-03T04:50:28;100189.25;;;7.39;93.78
69622;BME280;56841;55.964;37.674;2022-09-03T04:53:03;100187.78;;;7.56;92.76
69622;BME280;56841;55.964;37.674;2022-09-03T04:55:33;100192.09;;;7.67;91.82
69622;BME280;56841;55.964;37.674;2022-09-03T04:57:59;100187.97;;;7.74;91.20
69622;BME280;56841;55.964;37.674;2022-09-03T05:00:25;100191.84;;;7.89;90.78
69622;BME280;56841;55.964;37.674;2022-09-03T05:02:51;100192.69;;;7.90;90.38
69622;BME280;56841;55.964;37.674;2022-09-03T05:05:17;100189.63;;;7.84;89.94
69622;BME280;56841;55.964;37.674;2022-09-03T05:07:44;100191.84;;;7.89;89.78
69622;BME280;56841;55.964;37.674;2022-09-03T05:10:12;100190.91;;;7.90;88.53
69622;BME280;56841;55.964;37.674;2022-09-03T05:13:00;100200.19;;;7.94;87.93
69622;BME280;56841;55.964;37.674;2022-09-03T05:15:28;100201.69;;;8.06;87.20
69622;BME280;56841;55.964;37.674;2022-09-03T05:18:01;100199.50;;;8.21;86.34
69622;BME280;56841;55.964;37.674;2022-09-03T05:20:28;100208.50;;;8.28;85.17
69622;BME280;56841;55.964;37.674;2022-09-03T05:22:56;100209.47;;;8.37;84.01
69622;BME280;56841;55.964;37.674;2022-09-03T05:25:23;100206.59;;;8.40;83.94
69622;BME280;56841;55.964;37.674;2022-09-03T05:27:49;100210.03;;;8.50;82.64
69622;BME280;56841;55.964;37.674;2022-09-03T05:30:16;100206.03;;;8.66;83.68
69622;BME280;56841;55.964;37.674;2022-09-03T05:32:42;100213.19;;;8.83;83.17
69622;BME280;56841;55.964;37.674;2022-09-03T05:35:08;100210.16;;;8.78;81.61
69622;BME280;56841;55.964;37.674;2022-09-03T05:37:36;100210.97;;;8.78;80.75
69622;BME280;56841;55.964;37.674;2022-09-03T05:40:03;100213.72;;;8.96;81.26
69622;BME280;56841;55.964;37.674;2022-09-03T05:42:30;100222.47;;;8.87;79.89
69622;BME280;56841;55.964;37.674;2022-09-03T05:44:56;100218.44;;;8.93;79.35
69622;BME280;56841;55.964;37.674;2022-09-03T05:47:22;100220.09;;;9.04;78.92
69622;BME280;56841;55.964;37.674;2022-09-03T05:49:48;100220.19;;;9.12;78.10
69622;BME280;56841;55.964;37.674;2022-09-03T05:52:15;100224.19;;;9.16;78.04
69622;BME280;56841;55.964;37.674;2022-09-03T05:54:41;100225.47;;;9.12;77.33
69622;BME280;56841;55.964;37.674;2022-09-03T05:57:07;100229.06;;;9.20;77.33
69622;BME280;56841;55.964;37.674;2022-09-03T05:59:33;100238.59;;;9.31;76.45
69622;BME280;56841;55.964;37.674;2022-09-03T06:01:59;100233.75;;;9.27;75.94
69622;BME280;56841;55.964;37.674;2022-09-03T06:04:25;100228.00;;;9.41;76.04
69622;BME280;56841;55.964;37.674;2022-09-03T06:06:51;100233.53;;;9.47;75.79
69622;BME280;56841;55.964;37.674;2022-09-03T06:09:18;100232.91;;;9.54;75.08
69622;BME280;56841;55.964;37.674;2022-09-03T06:11:45;100239.22;;;9.70;75.54
69622;BME280;56841;55.964;37.674;2022-09-03T06:14:13;100234.19;;;9.77;73.67
69622;BME280;56841;55.964;37.674;2022-09-03T06:16:41;100240.47;;;9.76;73.52
69622;BME280;56841;55.964;37.674;2022-09-03T06:19:08;100242.06;;;9.87;73.38
69622;BME280;56841;55.964;37.674;2022-09-03T06:21:36;100245.75;;;9.94;73.24
69622;BME280;56841;55.964;37.674;2022-09-03T06:24:05;100243.06;;;10.04;73.08
69622;BME280;56841;55.964;37.674;2022-09-03T06:26:31;100240.72;;;10.01;72.84
69622;BME280;56841;55.964;37.674;2022-09-03T06:28:56;100246.19;;;10.17;72.80
69622;BME280;56841;55.964;37.674;2022-09-03T06:31:23;100245.59;;;10.23;71.33
69622;BME280;56841;55.964;37.674;2022-09-03T06:33:49;100237.41;;;10.26;71.70
69622;BME280;56841;55.964;37.674;2022-09-03T06:36:18;100246.97;;;10.27;70.74
69622;BME280;56841;55.964;37.674;2022-09-03T06:38:44;100243.75;;;10.33;70.98
69622;BME280;56841;55.964;37.674;2022-09-03T06:41:16;100244.56;;;10.34;71.28
69622;BME280;56841;55.964;37.674;2022-09-03T06:43:46;100237.03;;;10.57;70.61
69622;BME280;56841;55.964;37.674;2022-09-03T06:46:15;100242.50;;;10.46;69.34
69622;BME280;56841;55.964;37.674;2022-09-03T06:48:42;100240.94;;;10.53;69.81
69622;BME280;56841;55.964;37.674;2022-09-03T06:51:15;100252.72;;;10.40;70.39
69622;BME280;56841;55.964;37.674;2022-09-03T06:53:51;100241.31;;;10.58;69.22
69622;BME280;56841;55.964;37.674;2022-09-03T06:56:19;100246.50;;;10.67;68.47
69622;BME280;56841;55.964;37.674;2022-09-03T06:58:53;100246.44;;;10.77;68.28
69622;BME280;56841;55.964;37.674;2022-09-03T07:01:21;100250.72;;;10.78;68.05
69622;BME280;56841;55.964;37.674;2022-09-03T07:03:52;100247.00;;;10.89;67.83
69622;BME280;56841;55.964;37.674;2022-09-03T07:06:22;100250.06;;;11.02;68.17
69622;BME280;56841;55.964;37.674;2022-09-03T07:08:48;100257.56;;;10.89;66.32
69622;BME280;56841;55.964;37.674;2022-09-03T07:11:16;100252.53;;;11.04;65.59
69622;BME280;56841;55.964;37.674;2022-09-03T07:13:46;100252.94;;;11.09;65.17
69622;BME280;56841;55.964;37.674;2022-09-03T07:16:18;100254.06;;;11.06;65.05
69622;BME280;56841;55.964;37.674;2022-09-03T07:18:44;100259.66;;;11.03;65.08
69622;BME280;56841;55.964;37.674;2022-09-03T07:21:12;100256.59;;;11.16;64.46
69622;BME280;56841;55.964;37.674;2022-09-03T07:23:39;100258.56;;;11.14;65.44
69622;BME280;56841;55.964;37.674;2022-09-03T07:26:07;100253.97;;;11.16;65.30
69622;BME280;56841;55.964;37.674;2022-09-03T07:28:35;100243.28;;;11.26;65.62
69622;BME280;56841;55.964;37.674;2022-09-03T07:31:23;100251.03;;;11.27;64.42
69622;BME280;56841;55.964;37.674;2022-09-03T07:33:57;100247.34;;;11.12;64.88
69622;BME280;56841;55.964;37.674;2022-09-03T07:36:26;100251.75;;;11.37;64.99
69622;BME280;56841;55.964;37.674;2022-09-03T07:38:57;100248.91;;;11.57;64.15
69622;BME280;56841;55.964;37.674;2022-09-03T07:41:24;100245.69;;;11.45;63.68
69622;BME280;56841;55.964;37.674;2022-09-03T07:43:52;100256.59;;;11.42;63.80
69622;BME280;56841;55.964;37.674;2022-09-03T07:46:20;100259.16;;;11.26;63.54
69622;BME280;56841;55.964;37.674;2022-09-03T07:48:55;100251.44;;;11.41;63.41
69622;BME280;56841;55.964;37.674;2022-09-03T07:51:26;100247.47;;;11.71;64.04
69622;BME280;56841;55.964;37.674;2022-09-03T07:53:54;100246.38;;;11.90;63.25
69622;BME280;56841;55.964;37.674;2022-09-03T07:56:22;100244.78;;;12.05;62.63
69622;BME280;56841;55.964;37.674;2022-09-03T07:58:49;100244.00;;;12.21;61.11
69622;BME280;56841;55.964;37.674;2022-09-03T08:01:17;100243.88;;;12.39;61.58
69622;BME280;56841;55.964;37.674;2022-09-03T08:03:45;100238.25;;;12.58;60.31
69622;BME280;56841;55.964;37.674;2022-09-03T08:06:13;100239.41;;;12.72;59.13
69622;BME280;56841;55.964;37.674;2022-09-03T08:08:39;100242.88;;;12.40;59.81
69622;BME280;56841;55.964;37.674;2022-09-03T08:11:11;100246.50;;;12.39;60.20
69622;BME280;56841;55.964;37.674;2022-09-03T08:13:43;100241.03;;;12.40;60.88
69622;BME280;56841;55.964;37.674;2022-09-03T08:16:11;100244.97;;;12.12;62.72
69622;BME280;56841;55.964;37.674;2022-09-03T08:18:37;100248.94;;;12.07;63.08
69622;BME280;56841;55.964;37.674;2022-09-03T08:21:09;100244.66;;;12.15;63.30
69622;BME280;56841;55.964;37.674;2022-09-03T08:23:41;100255.28;;;12.31;62.83
69622;BME280;56841;55.964;37.674;2022-09-03T08:26:08;100250.97;;;12.54;59.41
69622;BME280;56841;55.964;37.674;2022-09-03T08:28:35;100241.38;;;12.70;59.84
69622;BME280;56841;55.964;37.674;2022-09-03T08:31:09;100244.69;;;12.88;59.82
69622;BME280;56841;55.964;37.674;2022-09-03T08:33:39;100244.50;;;13.06;58.50
69622;BME280;56841;55.964;37.674;2022-09-03T08:36:20;100246.69;;;12.78;58.27
69622;BME280;56841;55.964;37.674;2022-09-03T08:38:50;100249.66;;;12.67;58.78
69622;BME280;56841;55.964;37.674;2022-09-03T08:49:22;100235.38;;;13.09;57.22
69622;BME280;56841;55.964;37.674;2022-09-03T08:51:53;100240.16;;;13.38;56.66
69622;BME280;56841;55.964;37.674;2022-09-03T08:54:24;100233.75;;;13.63;54.77
69622;BME280;56841;55.964;37.674;2022-09-03T08:56:51;100236.25;;;13.65;53.10
69622;BME280;56841;55.964;37.674;2022-09-03T08:59:18;100230.38;;;13.38;53.13
69622;BME280;56841;55.964;37.674;2022-09-03T09:01:56;100235.63;;;13.46;52.06
69622;BME280;56841;55.964;37.674;2022-09-03T09:10:48;100227.19;;;13.51;52.01
69622;BME280;56841;55.964;37.674;2022-09-03T09:14:06;100230.03;;;13.33;52.47
69622;BME280;56841;55.964;37.674;2022-09-03T09:25:24;100237.31;;;13.87;50.72
69622;BME280;56841;55.964;37.674;2022-09-03T09:27:58;100234.84;;;13.77;50.30
69622;BME280;56841;55.964;37.674;2022-09-03T09:30:27;100234.25;;;13.98;49.54
69622;BME280;56841;55.964;37.674;2022-09-03T09:32:53;100228.59;;;14.01;48.05
69622;BME280;56841;55.964;37.674;2022-09-03T09:35:21;100230.75;;;13.74;50.43
69622;BME280;56841;55.964;37.674;2022-09-03T09:37:52;100233.94;;;13.62;50.12
69622;BME280;56841;55.964;37.674;2022-09-03T09:40:39;100243.81;;;13.20;50.80
69622;BME280;56841;55.964;37.674;2022-09-03T09:43:12;100230.75;;;13.11;51.66
69622;BME280;56841;55.964;37.674;2022-09-03T09:45:48;100237.56;;;12.97;51.32
69622;BME280;56841;55.964;37.674;2022-09-03T09:48:30;100234.03;;;13.13;51.42
69622;BME280;56841;55.964;37.674;2022-09-03T09:51:19;100234.19;;;13.36;51.04
69622;BME280;56841;55.964;37.674;2022-09-03T09:53:45;100237.03;;;13.26;50.93
69622;BME280;56841;55.964;37.674;2022-09-03T09:56:22;100232.69;;;13.41;51.00
69622;BME280;56841;55.964;37.674;2022-09-03T09:58:49;100236.66;;;13.45;50.38
69622;BME280;56841;55.964;37.674;2022-09-03T10:01:22;100238.19;;;13.15;49.86
69622;BME280;56841;55.964;37.674;2022-09-03T10:03:55;100231.19;;;13.47;50.33
69622;BME280;56841;55.964;37.674;2022-09-03T10:06:23;100223.72;;;13.42;50.25
69622;BME280;56841;55.964;37.674;2022-09-03T10:09:14;100218.50;;;13.57;50.11
69622;BME280;56841;55.964;37.674;2022-09-03T10:21:00;100210.44;;;14.13;47.59
69622;BME280;56841;55.964;37.674;2022-09-03T10:23:26;100208.69;;;14.05;47.29
69622;BME280;56841;55.964;37.674;2022-09-03T10:28:28;100203.38;;;14.51;46.43
69622;BME280;56841;55.964;37.674;2022-09-03T10:31:17;100212.63;;;14.55;45.71
69622;BME280;56841;55.964;37.674;2022-09-03T10:39:56;100221.88;;;14.97;45.37
69622;BME280;56841;55.964;37.674;2022-09-03T10:48:09;100227.28;;;13.97;46.20
69622;BME280;56841;55.964;37.674;2022-09-03T10:50:52;100223.38;;;13.85;46.19
69622;BME280;56841;55.964;37.674;2022-09-03T10:53:46;100222.59;;;14.07;46.41
69622;BME280;56841;55.964;37.674;2022-09-03T10:56:21;100231.63;;;14.21;45.37
69622;BME280;56841;55.964;37.674;2022-09-03T11:04:37;100218.31;;;14.29;45.95
69622;BME280;56841;55.964;37.674;2022-09-03T11:07:12;100211.00;;;14.46;45.72
69622;BME280;56841;55.964;37.674;2022-09-03T11:09:49;100225.25;;;14.30;45.43
69622;BME280;56841;55.964;37.674;2022-09-03T11:12:22;100215.38;;;13.93;44.86
69622;BME280;56841;55.964;37.674;2022-09-03T11:17:33;100214.09;;;14.35;43.77
69622;BME280;56841;55.964;37.674;2022-09-03T11:20:19;100203.38;;;14.51;42.37
69622;BME280;56841;55.964;37.674;2022-09-03T11:22:46;100207.59;;;14.37;43.41
69622;BME280;56841;55.964;37.674;2022-09-03T11:25:16;100199.97;;;14.11;43.66
69622;BME280;56841;55.964;37.674;2022-09-03T11:27:55;100198.78;;;13.91;44.39
69622;BME280;56841;55.964;37.674;2022-09-03T11:33:29;100206.19;;;14.27;44.76
69622;BME280;56841;55.964;37.674;2022-09-03T11:35:59;100203.94;;;14.38;44.34
69622;BME280;56841;55.964;37.674;2022-09-03T11:38:28;100187.88;;;14.78;43.93
69622;BME280;56841;55.964;37.674;2022-09-03T11:41:00;100180.00;;;14.99;43.80
69622;BME280;56841;55.964;37.674;2022-09-03T11:43:34;100183.97;;;15.18;42.77
69622;BME280;56841;55.964;37.674;2022-09-03T11:48:44;100175.84;;;15.56;41.92
69622;BME280;56841;55.964;37.674;2022-09-03T11:51:32;100181.75;;;15.36;42.47
69622;BME280;56841;55.964;37.674;2022-09-03T11:56:31;100162.38;;;15.43;42.42
69622;BME280;56841;55.964;37.674;2022-09-03T11:59:23;100179.41;;;15.48;42.11
69622;BME280;56841;55.964;37.674;2022-09-03T12:02:24;100167.78;;;15.49;43.09
69622;BME280;56841;55.964;37.674;2022-09-03T12:18:04;100165.41;;;15.10;42.92
69622;BME280;56841;55.964;37.674;2022-09-03T12:20:45;100156.25;;;15.12;42.63
69622;BME280;56841;55.964;37.674;2022-09-03T12:23:13;100161.09;;;15.24;41.19
69622;BME280;56841;55.964;37.674;2022-09-03T12:25:45;100157.97;;;15.35;41.22
69622;BME280;56841;55.964;37.674;2022-09-03T12:28:16;100157.06;;;15.28;41.41
69622;BME280;56841;55.964;37.674;2022-09-03T12:30:44;100152.59;;;15.28;41.28
69622;BME280;56841;55.964;37.674;2022-09-03T12:33:12;100153.59;;;15.78;40.55
69622;BME280;56841;55.964;37.674;2022-09-03T12:35:41;100151.19;;;17.04;38.42
69622;BME280;56841;55.964;37.674;2022-09-03T12:38:07;100138.75;;;17.72;37.48
69622;BME280;56841;55.964;37.674;2022-09-03T12:40:33;100137.03;;;18.19;36.44
69622;BME280;56841;55.964;37.674;2022-09-03T12:43:19;100133.72;;;18.84;35.33
69622;BME280;56841;55.964;37.674;2022-09-03T12:45:51;100135.53;;;19.55;33.73
69622;BME280;56841;55.964;37.674;2022-09-03T12:48:19;100134.69;;;19.03;33.48
69622;BME280;56841;55.964;37.674;2022-09-03T12:50:47;100131.16;;;19.22;33.74
69622;BME280;56841;55.964;37.674;2022-09-03T12:53:23;100124.50;;;19.31;33.26
69622;BME280;56841;55.964;37.674;2022-09-03T12:55:52;100122.38;;;18.95;33.92
69622;BME280;56841;55.964;37.674;2022-09-03T12:58:42;100124.84;;;19.48;34.04
69622;BME280;56841;55.964;37.674;2022-09-03T13:02:02;100122.66;;;19.38;33.99
69622;BME280;56841;55.964;37.674;2022-09-03T13:04:07;100123.84;;;19.42;34.05
69622;BME280;56841;55.964;37.674;2022-09-03T13:07:01;100125.94;;;19.79;33.23
69622;BME280;56841;55.964;37.674;2022-09-03T13:09:29;100115.72;;;20.26;33.00
69622;BME280;56841;55.964;37.674;2022-09-03T13:11:57;100117.31;;;19.77;33.51
69622;BME280;56841;55.964;37.674;2022-09-03T13:14:44;100111.97;;;19.77;33.52
69622;BME280;56841;55.964;37.674;2022-09-03T13:20:04;100114.78;;;18.59;35.25
69622;BME280;56841;55.964;37.674;2022-09-03T13:22:56;100118.66;;;17.83;36.87
69622;BME280;56841;55.964;37.674;2022-09-03T13:25:46;100123.44;;;18.08;36.86
69622;BME280;56841;55.964;37.674;2022-09-03T13:28:39;100109.91;;;19.27;35.08
69622;BME280;56841;55.964;37.674;2022-09-03T13:31:30;100113.47;;;19.98;33.90
69622;BME280;56841;55.964;37.674;2022-09-03T13:34:02;100105.88;;;20.45;33.05
69622;BME280;56841;55.964;37.674;2022-09-03T13:39:37;100104.03;;;20.45;33.04
69622;BME280;56841;55.964;37.674;2022-09-03T13:42:12;100100.81;;;20.80;32.74
69622;BME280;56841;55.964;37.674;2022-09-03T13:44:46;100108.88;;;20.98;32.48
69622;BME280;56841;55.964;37.674;2022-09-03T13:50:07;100106.53;;;19.90;34.36
69622;BME280;56841;55.964;37.674;2022-09-03T13:52:58;100102.06;;;19.32;35.05
69622;BME280;56841;55.964;37.674;2022-09-03T14:01:05;100096.63;;;19.52;34.46
69622;BME280;56841;55.964;37.674;2022-09-03T14:04:09;100099.16;;;18.56;36.70
69622;BME280;56841;55.964;37.674;2022-09-03T14:06:41;100089.69;;;18.73;36.39
69622;BME280;56841;55.964;37.674;2022-09-03T14:09:43;100083.09;;;19.34;35.34
69622;BME280;56841;55.964;37.674;2022-09-03T14:12:28;100094.44;;;19.36;34.62
69622;BME280;56841;55.964;37.674;2022-09-03T14:21:03;100077.09;;;19.83;33.84
69622;BME280;56841;55.964;37.674;2022-09-03T14:26:34;100074.69;;;20.00;33.19
69622;BME280;56841;55.964;37.674;2022-09-03T14:37:30;100068.16;;;17.88;36.95
69622;BME280;56841;55.964;37.674;2022-09-03T14:40:17;100070.03;;;17.33;37.84
69622;BME280;56841;55.964;37.674;2022-09-03T14:43:17;100072.81;;;16.70;39.40
69622;BME280;56841;55.964;37.674;2022-09-03T14:46:07;100065.91;;;16.54;40.03
69622;BME280;56841;55.964;37.674;2022-09-03T14:51:31;100068.09;;;16.38;40.96
69622;BME280;56841;55.964;37.674;2022-09-03T15:10:31;100055.63;;;18.15;38.27
69622;BME280;56841;55.964;37.674;2022-09-03T15:13:13;100052.00;;;17.42;39.64
69622;BME280;56841;55.964;37.674;2022-09-03T15:20:49;100045.59;;;15.91;43.22
69622;BME280;56841;55.964;37.674;2022-09-03T15:24:05;100047.59;;;15.88;43.47
69622;BME280;56841;55.964;37.674;2022-09-03T15:26:38;100041.47;;;15.52;44.29
69622;BME280;56841;55.964;37.674;2022-09-03T15:34:56;100044.25;;;15.07;45.92
69622;BME280;56841;55.964;37.674;2022-09-03T15:37:31;100045.19;;;15.00;46.40
69622;BME280;56841;55.964;37.674;2022-09-03T15:42:41;100046.63;;;14.81;46.59
69622;BME280;56841;55.964;37.674;2022-09-03T15:47:55;100044.03;;;14.87;47.02
69622;BME280;56841;55.964;37.674;2022-09-03T15:50:50;100046.69;;;14.73;47.65
69622;BME280;56841;55.964;37.674;2022-09-03T15:53:36;100042.31;;;14.65;48.03
69622;BME280;56841;55.964;37.674;2022-09-03T15:56:21;100053.28;;;14.47;48.58
69622;BME280;56841;55.964;37.674;2022-09-03T15:58:56;100047.00;;;14.25;49.28
69622;BME280;56841;55.964;37.674;2022-09-03T16:07:08;100056.91;;;13.93;51.03
69622;BME280;56841;55.964;37.674;2022-09-03T16:10:04;100051.22;;;13.82;51.40
69622;BME280;56841;55.964;37.674;2022-09-03T16:15:27;100063.78;;;13.65;52.36
69622;BME280;56841;55.964;37.674;2022-09-03T16:21:08;100051.63;;;13.47;52.93
69622;BME280;56841;55.964;37.674;2022-09-03T16:26:20;100059.47;;;13.33;53.94
69622;BME280;56841;55.964;37.674;2022-09-03T16:29:16;100060.84;;;13.28;54.23
69622;BME280;56841;55.964;37.674;2022-09-03T16:39:47;100074.53;;;13.01;55.11
69622;BME280;56841;55.964;37.674;2022-09-03T16:42:34;100068.94;;;12.96;55.61
69622;BME280;56841;55.964;37.674;2022-09-03T16:45:42;100075.09;;;12.80;56.11